sensor_id;sensor_type;location;lat;lon;timestamp;pressure;altitude;pressure_sealevel;temperature;humidity
64243;BME280;50573;51.512;5.386;2023-04-24T00:02:52;99704.84;;;10.23;100.00
64243;BME280;50573;51.512;5.386;2023-04-24T00:12:59;99720.72;;;10.16;100.00
64243;BME280;50573;51.512;5.386;2023-04-24T00:23:06;99708.47;;;10.02;100.00
64243;BME280;50573;51.512;5.386;2023-04-24T00:33:09;99728.88;;;9.89;100.00
64243;BME280;50573;51.512;5.386;2023-04-24T00:43:14;99735.34;;;9.73;100.00
64243;BME280;50573;51.512;5.386;2023-04-24T00:53:17;99727.06;;;9.67;100.00
64243;BME280;50573;51.512;5.386;2023-04-24T01:03:22;99725.84;;;9.77;100.00
64243;BME280;50573;51.512;5.386;2023-04-24T01:13:28;99725.69;;;9.72;100.00
64243;BME280;50573;51.512;5.386;2023-04-24T01:23:33;99726.25;;;9.49;100.00
64243;BME280;50573;51.512;5.386;2023-04-24T01:33:36;99727.34;;;9.51;100.00
64243;BME280;50573;51.512;5.386;2023-04-24T01:43:41;99722.63;;;9.43;100.00
64243;BME280;50573;51.512;5.386;2023-04-24T01:53:44;99721.88;;;9.42;100.00
64243;BME280;50573;51.512;5.386;2023-04-24T02:03:48;99722.16;;;9.35;100.00
64243;BME280;50573;51.512;5.386;2023-04-24T02:13:51;99727.75;;;9.32;100.00
64243;BME280;50573;51.512;5.386;2023-04-24T02:23:56;99743.09;;;9.17;100.00
64243;BME280;50573;51.512;5.386;2023-04-24T02:33:59;99739.16;;;9.18;100.00
64243;BME280;50573;51.512;5.386;2023-04-24T02:44:03;99724.03;;;9.08;100.00
64243;BME280;50573;51.512;5.386;2023-04-24T02:54:07;99717.88;;;9.07;100.00
64243;BME280;50573;51.512;5.386;2023-04-24T03:04:12;99711.84;;;9.12;100.00
64243;BME280;50573;51.512;5.386;2023-04-24T03:14:15;99713.63;;;9.06;100.00
64243;BME280;50573;51.512;5.386;2023-04-24T03:24:20;99716.78;;;9.05;100.00
64243;BME280;50573;51.512;5.386;2023-04-24T03:34:24;99710.44;;;9.08;100.00
64243;BME280;50573;51.512;5.386;2023-04-24T03:44:29;99706.81;;;9.02;100.00
64243;BME280;50573;51.512;5.386;2023-04-24T03:54:32;99710.63;;;9.13;100.00
64243;BME280;50573;51.512;5.386;2023-04-24T04:04:40;99712.44;;;9.07;100.00
64243;BME280;50573;51.512;5.386;2023-04-24T04:14:44;99712.56;;;9.04;100.00
64243;BME280;50573;51.512;5.386;2023-04-24T04:24:49;99722.47;;;8.89;100.00
64243;BME280;50573;51.512;5.386;2023-04-24T04:34:55;99730.03;;;8.94;100.00
64243;BME280;50573;51.512;5.386;2023-04-24T04:45:04;99728.78;;;8.86;100.00
64243;BME280;50573;51.512;5.386;2023-04-24T04:55:19;99726.53;;;8.84;100.00
64243;BME280;50573;51.512;5.386;2023-04-24T05:05:53;99744.81;;;8.93;100.00
64243;BME280;50573;51.512;5.386;2023-04-24T05:15:58;99751.16;;;8.90;100.00
64243;BME280;50573;51.512;5.386;2023-04-24T05:26:04;99748.72;;;8.92;100.00
64243;BME280;50573;51.512;5.386;2023-04-24T05:36:09;99774.50;;;8.87;100.00
64243;BME280;50573;51.512;5.386;2023-04-24T05:46:13;99788.78;;;8.79;100.00
64243;BME280;50573;51.512;5.386;2023-04-24T05:56:16;99805.72;;;8.83;100.00
64243;BME280;50573;51.512;5.386;2023-04-24T06:06:21;99813.97;;;8.79;100.00
64243;BME280;50573;51.512;5.386;2023-04-24T06:16:25;99825.59;;;8.80;100.00
64243;BME280;50573;51.512;5.386;2023-04-24T06:26:37;99849.53;;;8.72;100.00
64243;BME280;50573;51.512;5.386;2023-04-24T06:36:41;99881.03;;;8.70;100.00
64243;BME280;50573;51.512;5.386;2023-04-24T06:46:46;99921.63;;;8.73;100.00
64243;BME280;50573;51.512;5.386;2023-04-24T06:56:49;99951.63;;;8.70;100.00
64243;BME280;50573;51.512;5.386;2023-04-24T07:06:55;99990.94;;;8.65;100.00
64243;BME280;50573;51.512;5.386;2023-04-24T07:16:59;100029.06;;;8.62;100.00
64243;BME280;50573;51.512;5.386;2023-04-24T07:27:04;100054.91;;;8.66;100.00
64243;BME280;50573;51.512;5.386;2023-04-24T07:37:07;100073.69;;;8.73;100.00
64243;BME280;50573;51.512;5.386;2023-04-24T07:47:11;100112.00;;;8.63;100.00
64243;BME280;50573;51.512;5.386;2023-04-24T07:57:16;100135.03;;;8.58;100.00
64243;BME280;50573;51.512;5.386;2023-04-24T08:07:21;100157.97;;;8.57;100.00
64243;BME280;50573;51.512;5.386;2023-04-24T08:17:24;100163.72;;;8.72;100.00
64243;BME280;50573;51.512;5.386;2023-04-24T08:27:29;100181.84;;;8.87;100.00
64243;BME280;50573;51.512;5.386;2023-04-24T08:37:32;100212.38;;;8.91;100.00
64243;BME280;50573;51.512;5.386;2023-04-24T08:47:37;100244.22;;;9.16;100.00
64243;BME280;50573;51.512;5.386;2023-04-24T08:57:41;100268.28;;;9.64;100.00
64243;BME280;50573;51.512;5.386;2023-04-24T09:07:49;100277.66;;;9.13;100.00
64243;BME280;50573;51.512;5.386;2023-04-24T09:17:55;100298.13;;;9.17;100.00
64243;BME280;50573;51.512;5.386;2023-04-24T09:28:02;100318.31;;;9.54;100.00
64243;BME280;50573;51.512;5.386;2023-04-24T09:38:05;100338.34;;;9.35;100.00
64243;BME280;50573;51.512;5.386;2023-04-24T09:48:10;100358.75;;;9.14;100.00
64243;BME280;50573;51.512;5.386;2023-04-24T09:58:13;100369.34;;;9.62;100.00
64243;BME280;50573;51.512;5.386;2023-04-24T10:08:18;100386.78;;;10.24;100.00
64243;BME280;50573;51.512;5.386;2023-04-24T10:18:21;100388.78;;;10.45;100.00
64243;BME280;50573;51.512;5.386;2023-04-24T10:28:27;100418.59;;;9.77;98.51
64243;BME280;50573;51.512;5.386;2023-04-24T10:38:30;100425.22;;;9.51;98.37
64243;BME280;50573;51.512;5.386;2023-04-24T10:48:35;100436.22;;;9.98;97.28
64243;BME280;50573;51.512;5.386;2023-04-24T10:58:40;100436.97;;;10.23;99.11
64243;BME280;50573;51.512;5.386;2023-04-24T11:08:48;100458.16;;;10.41;95.14
64243;BME280;50573;51.512;5.386;2023-04-24T11:18:56;100470.19;;;9.93;96.47
64243;BME280;50573;51.512;5.386;2023-04-24T11:29:07;100487.69;;;9.67;100.00
64243;BME280;50573;51.512;5.386;2023-04-24T11:39:11;100491.50;;;9.82;98.97
64243;BME280;50573;51.512;5.386;2023-04-24T11:49:15;100493.03;;;9.96;93.55
64243;BME280;50573;51.512;5.386;2023-04-24T11:59:18;100516.66;;;10.36;92.88
64243;BME280;50573;51.512;5.386;2023-04-24T12:09:23;100523.50;;;10.41;91.73
64243;BME280;50573;51.512;5.386;2023-04-24T12:19:26;100537.03;;;11.03;90.33
64243;BME280;50573;51.512;5.386;2023-04-24T12:29:33;100546.63;;;10.95;87.48
64243;BME280;50573;51.512;5.386;2023-04-24T12:39:36;100561.91;;;11.49;84.01
64243;BME280;50573;51.512;5.386;2023-04-24T12:49:41;100577.78;;;12.06;81.85
64243;BME280;50573;51.512;5.386;2023-04-24T12:59:44;100584.53;;;12.72;80.99
64243;BME280;50573;51.512;5.386;2023-04-24T13:09:49;100593.16;;;11.69;83.47
64243;BME280;50573;51.512;5.386;2023-04-24T13:19:54;100593.44;;;11.15;87.42
64243;BME280;50573;51.512;5.386;2023-04-24T13:29:59;100609.03;;;10.43;94.17
64243;BME280;50573;51.512;5.386;2023-04-24T13:40:03;100608.03;;;10.75;92.35
64243;BME280;50573;51.512;5.386;2023-04-24T13:50:09;100596.78;;;10.85;90.12
64243;BME280;50573;51.512;5.386;2023-04-24T14:00:13;100612.25;;;10.88;92.05
64243;BME280;50573;51.512;5.386;2023-04-24T14:10:18;100626.97;;;10.91;88.91
64243;BME280;50573;51.512;5.386;2023-04-24T14:20:21;100615.97;;;10.44;96.00
64243;BME280;50573;51.512;5.386;2023-04-24T14:30:26;100619.72;;;10.50;91.04
64243;BME280;50573;51.512;5.386;2023-04-24T14:40:29;100618.63;;;11.19;87.72
64243;BME280;50573;51.512;5.386;2023-04-24T14:50:54;100617.28;;;11.58;84.52
64243;BME280;50573;51.512;5.386;2023-04-24T15:00:57;100637.75;;;12.49;74.84
64243;BME280;50573;51.512;5.386;2023-04-24T15:11:01;100638.00;;;13.84;69.37
64243;BME280;50573;51.512;5.386;2023-04-24T15:21:06;100648.53;;;15.11;64.62
64243;BME280;50573;51.512;5.386;2023-04-24T15:31:10;100635.41;;;15.15;63.39
64243;BME280;50573;51.512;5.386;2023-04-24T15:41:13;100659.22;;;14.35;67.99
64243;BME280;50573;51.512;5.386;2023-04-24T15:51:17;100660.09;;;12.96;75.17
64243;BME280;50573;51.512;5.386;2023-04-24T16:01:21;100657.88;;;12.73;74.85
64243;BME280;50573;51.512;5.386;2023-04-24T16:11:25;100657.50;;;11.79;78.71
64243;BME280;50573;51.512;5.386;2023-04-24T16:21:28;100645.00;;;11.23;80.33
64243;BME280;50573;51.512;5.386;2023-04-24T16:31:34;100654.13;;;10.82;80.37
64243;BME280;50573;51.512;5.386;2023-04-24T16:41:37;100668.59;;;10.91;79.75
64243;BME280;50573;51.512;5.386;2023-04-24T16:51:41;100670.81;;;10.84;77.79
64243;BME280;50573;51.512;5.386;2023-04-24T17:01:44;100677.03;;;10.84;78.80
64243;BME280;50573;51.512;5.386;2023-04-24T17:11:51;100675.59;;;10.80;78.64
64243;BME280;50573;51.512;5.386;2023-04-24T17:21:54;100687.03;;;10.75;76.53
64243;BME280;50573;51.512;5.386;2023-04-24T17:32:00;100681.03;;;10.42;78.19
64243;BME280;50573;51.512;5.386;2023-04-24T17:42:04;100672.69;;;10.08;80.08
64243;BME280;50573;51.512;5.386;2023-04-24T17:52:08;100679.22;;;9.82;81.94
64243;BME280;50573;51.512;5.386;2023-04-24T18:02:12;100678.38;;;9.69;82.12
64243;BME280;50573;51.512;5.386;2023-04-24T18:12:16;100687.31;;;9.53;82.39
64243;BME280;50573;51.512;5.386;2023-04-24T18:22:20;100697.47;;;9.37;83.69
64243;BME280;50573;51.512;5.386;2023-04-24T18:32:31;100700.44;;;9.10;83.18
64243;BME280;50573;51.512;5.386;2023-04-24T18:42:37;100708.31;;;8.89;81.18
64243;BME280;50573;51.512;5.386;2023-04-24T18:52:42;100726.19;;;8.70;82.49
64243;BME280;50573;51.512;5.386;2023-04-24T19:02:45;100739.31;;;8.36;82.96
64243;BME280;50573;51.512;5.386;2023-04-24T19:12:49;100748.59;;;8.15;84.53
64243;BME280;50573;51.512;5.386;2023-04-24T19:22:57;100763.75;;;7.93;85.53
64243;BME280;50573;51.512;5.386;2023-04-24T19:33:01;100771.34;;;7.79;86.78
64243;BME280;50573;51.512;5.386;2023-04-24T19:43:04;100777.78;;;7.65;89.13
64243;BME280;50573;51.512;5.386;2023-04-24T19:53:09;100781.19;;;7.46;91.66
64243;BME280;50573;51.512;5.386;2023-04-24T20:03:13;100785.28;;;7.31;91.72
64243;BME280;50573;51.512;5.386;2023-04-24T20:13:34;100771.19;;;7.17;93.25
64243;BME280;50573;51.512;5.386;2023-04-24T20:23:37;100785.13;;;7.15;92.93
64243;BME280;50573;51.512;5.386;2023-04-24T20:33:42;100767.63;;;6.96;95.76
64243;BME280;50573;51.512;5.386;2023-04-24T20:43:46;100781.84;;;6.74;99.46
64243;BME280;50573;51.512;5.386;2023-04-24T20:53:50;100784.06;;;6.49;100.00
64243;BME280;50573;51.512;5.386;2023-04-24T21:03:53;100780.34;;;6.36;100.00
64243;BME280;50573;51.512;5.386;2023-04-24T21:13:58;100766.56;;;6.27;100.00
64243;BME280;50573;51.512;5.386;2023-04-24T21:24:04;100769.53;;;6.36;100.00
64243;BME280;50573;51.512;5.386;2023-04-24T21:34:09;100761.09;;;6.34;100.00
64243;BME280;50573;51.512;5.386;2023-04-24T21:44:12;100761.69;;;6.11;100.00
64243;BME280;50573;51.512;5.386;2023-04-24T21:54:16;100765.19;;;6.08;100.00
64243;BME280;50573;51.512;5.386;2023-04-24T22:04:21;100770.66;;;6.05;100.00
64243;BME280;50573;51.512;5.386;2023-04-24T22:14:25;100776.88;;;5.98;100.00
64243;BME280;50573;51.512;5.386;2023-04-24T22:24:28;100776.94;;;5.95;100.00
64243;BME280;50573;51.512;5.386;2023-04-24T22:34:33;100769.31;;;5.83;100.00
64243;BME280;50573;51.512;5.386;2023-04-24T22:44:36;100780.16;;;5.76;100.00
64243;BME280;50573;51.512;5.386;2023-04-24T22:54:40;100785.72;;;6.06;100.00
64243;BME280;50573;51.512;5.386;2023-04-24T23:04:44;100789.59;;;6.42;100.00
64243;BME280;50573;51.512;5.386;2023-04-24T23:14:48;100788.53;;;6.66;100.00
64243;BME280;50573;51.512;5.386;2023-04-24T23:24:51;100783.66;;;6.84;100.00
64243;BME280;50573;51.512;5.386;2023-04-24T23:34:55;100794.19;;;7.05;100.00
64243;BME280;50573;51.512;5.386;2023-04-24T23:44:58;100805.75;;;7.09;100.00
64243;BME280;50573;51.512;5.386;2023-04-24T23:55:03;100793.38;;;7.08;100.00
